createdAt,value
2019-06-20T00:00:36.288Z,95.30
2019-06-20T00:03:08.577Z,95.40
2019-06-20T00:05:40.669Z,95.40
2019-06-20T00:08:13.246Z,95.50
2019-06-20T00:10:44.930Z,95.60
2019-06-20T00:13:16.773Z,95.70
2019-06-20T00:15:48.735Z,95.90
2019-06-20T00:18:20.636Z,95.90
2019-06-20T00:20:52.508Z,96.00
2019-06-20T00:23:24.319Z,96.10
2019-06-20T00:25:56.387Z,96.10
2019-06-20T00:28:28.161Z,96.10
2019-06-20T00:30:59.995Z,96.20
2019-06-20T00:33:31.885Z,96.20
2019-06-20T00:36:03.641Z,96.20
2019-06-20T00:38:35.622Z,96.60
2019-06-20T00:41:07.557Z,96.20
2019-06-20T00:43:39.402Z,96.20
2019-06-20T00:46:11.215Z,96.30
2019-06-20T00:48:43.067Z,96.30
2019-06-20T00:51:14.949Z,96.30
2019-06-20T00:53:46.804Z,96.40
2019-06-20T00:56:18.650Z,96.40
2019-06-20T00:58:50.423Z,96.40
2019-06-20T01:01:22.064Z,96.50
2019-06-20T01:03:54.055Z,96.50
2019-06-20T01:06:26.369Z,96.60
2019-06-20T01:08:57.811Z,96.60
2019-06-20T01:11:29.585Z,96.70
2019-06-20T01:14:01.323Z,96.70
2019-06-20T01:16:33.205Z,96.80
2019-06-20T01:19:05.112Z,96.80
2019-06-20T01:21:37.078Z,96.90
2019-06-20T01:24:08.805Z,96.90
2019-06-20T01:26:40.684Z,97.00
2019-06-20T01:29:12.460Z,97.00
2019-06-20T01:31:44.387Z,97.10
2019-06-20T01:34:16.280Z,97.20
2019-06-20T01:36:48.226Z,97.20
2019-06-20T01:39:20.020Z,97.50
2019-06-20T01:41:51.649Z,97.30
2019-06-20T01:44:23.457Z,97.40
2019-06-20T01:46:55.407Z,97.40
2019-06-20T01:49:27.261Z,97.50
2019-06-20T01:51:59.103Z,97.50
2019-06-20T01:54:31.001Z,97.50
2019-06-20T01:57:02.860Z,97.50
2019-06-20T01:59:34.589Z,97.60
2019-06-20T02:02:07.743Z,97.60
2019-06-20T02:04:39.616Z,97.60
2019-06-20T02:07:11.473Z,97.70
2019-06-20T02:09:43.496Z,97.60
2019-06-20T02:12:15.316Z,97.60
2019-06-20T02:14:47.092Z,97.60
2019-06-20T02:17:18.973Z,97.50
2019-06-20T02:19:50.755Z,97.40
2019-06-20T02:22:22.577Z,97.40
2019-06-20T02:24:54.380Z,97.30
2019-06-20T02:27:26.235Z,97.30
2019-06-20T02:29:57.914Z,97.20
2019-06-20T02:32:29.827Z,97.10
2019-06-20T02:35:01.593Z,97.00
2019-06-20T02:37:33.434Z,97.00
2019-06-20T02:40:05.409Z,97.00
2019-06-20T02:42:37.344Z,96.90
2019-06-20T02:45:09.342Z,96.70
2019-06-20T02:47:41.375Z,96.80
2019-06-20T02:50:13.384Z,96.80
2019-06-20T02:52:45.245Z,96.70
2019-06-20T02:55:17.457Z,96.60
2019-06-20T02:57:49.316Z,96.50
2019-06-20T03:00:30.734Z,96.90
2019-06-20T03:03:02.805Z,96.50
2019-06-20T03:05:34.703Z,96.50
2019-06-20T03:08:06.863Z,96.40
2019-06-20T03:10:39.005Z,96.30
2019-06-20T03:13:10.801Z,96.20
2019-06-20T03:15:42.587Z,96.20
2019-06-20T03:18:14.460Z,96.10
2019-06-20T03:20:46.359Z,96.00
2019-06-20T03:23:18.378Z,96.10
2019-06-20T03:25:50.228Z,95.80
2019-06-20T03:28:21.946Z,95.70
2019-06-20T03:30:53.748Z,95.70
2019-06-20T03:33:25.482Z,95.60
2019-06-20T03:35:56.648Z,95.50
2019-06-20T03:38:30.582Z,95.30
2019-06-20T03:41:02.525Z,95.70
2019-06-20T03:43:34.501Z,95.30
2019-06-20T03:46:06.415Z,95.20
2019-06-20T03:48:38.580Z,95.10
2019-06-20T03:51:10.475Z,95.00
2019-06-20T03:53:42.315Z,95.00
2019-06-20T03:56:15.687Z,94.90
2019-06-20T03:58:47.508Z,94.80
2019-06-20T04:01:19.337Z,94.80
2019-06-20T04:03:51.149Z,94.70
2019-06-20T04:06:23.094Z,94.70
2019-06-20T04:08:55.446Z,94.60
2019-06-20T04:11:27.567Z,94.60
2019-06-20T04:13:59.435Z,94.60
2019-06-20T04:16:31.209Z,94.50
2019-06-20T04:19:03.042Z,94.90
2019-06-20T04:21:34.853Z,94.50
2019-06-20T04:24:06.455Z,94.30
2019-06-20T04:26:38.220Z,94.20
2019-06-20T04:29:10.065Z,94.10
2019-06-20T04:31:41.992Z,93.90
2019-06-20T04:34:18.857Z,93.80
2019-06-20T04:36:50.687Z,93.60
2019-06-20T04:39:22.458Z,93.30
2019-06-20T04:41:54.543Z,93.00
2019-06-20T04:44:26.268Z,92.70
2019-06-20T04:47:04.271Z,92.30
2019-06-20T04:49:37.261Z,91.90
2019-06-20T04:52:09.366Z,91.50
2019-06-20T04:54:41.348Z,91.00
2019-06-20T04:57:13.635Z,90.70
2019-06-20T04:59:48.383Z,90.30
2019-06-20T05:02:36.928Z,89.90
2019-06-20T05:05:09.319Z,89.00
2019-06-20T05:07:41.447Z,88.30
2019-06-20T05:10:14.409Z,87.80
2019-06-20T05:12:46.209Z,87.10
2019-06-20T05:15:18.108Z,86.40
2019-06-20T05:17:50.139Z,85.20
2019-06-20T05:20:22.177Z,84.50
2019-06-20T05:22:54.280Z,83.30
2019-06-20T05:25:26.233Z,82.20
2019-06-20T05:27:58.186Z,81.50
2019-06-20T05:30:30.255Z,80.70
2019-06-20T05:33:02.523Z,80.40
2019-06-20T05:35:34.353Z,80.70
2019-06-20T05:38:06.235Z,81.50
2019-06-20T05:40:38.159Z,82.30
2019-06-20T05:43:10.107Z,82.80
2019-06-20T05:45:46.138Z,83.40
2019-06-20T05:48:15.875Z,83.70
2019-06-20T05:50:47.518Z,84.10
2019-06-20T05:53:19.521Z,84.50
2019-06-20T05:55:51.415Z,84.60
2019-06-20T05:58:23.406Z,85.00
2019-06-20T06:00:55.215Z,85.00
2019-06-20T06:03:27.093Z,85.10
2019-06-20T06:05:58.913Z,85.20
2019-06-20T06:08:31.147Z,85.10
2019-06-20T06:11:03.195Z,84.90
2019-06-20T06:13:34.993Z,84.60
2019-06-20T06:16:06.981Z,84.50
2019-06-20T06:18:39.287Z,84.60
2019-06-20T06:21:11.253Z,84.70
2019-06-20T06:23:43.300Z,85.00
2019-06-20T06:26:15.257Z,85.20
2019-06-20T06:28:47.182Z,85.50
2019-06-20T06:31:19.334Z,85.70
2019-06-20T06:33:51.392Z,86.20
2019-06-20T06:36:23.437Z,86.50
2019-06-20T06:38:55.437Z,86.60
2019-06-20T06:41:27.480Z,87.00
2019-06-20T06:43:59.584Z,87.30
2019-06-20T06:46:43.589Z,87.30
2019-06-20T06:49:05.277Z,87.30
2019-06-20T06:51:38.297Z,87.40
2019-06-20T06:54:10.448Z,87.30
2019-06-20T06:56:42.336Z,87.10
2019-06-20T06:59:14.507Z,86.80
2019-06-20T07:01:46.556Z,86.50
2019-06-20T07:04:18.621Z,86.10
2019-06-20T07:06:50.787Z,86.00
2019-06-20T07:09:23.039Z,85.50
2019-06-20T07:11:55.221Z,85.20
2019-06-20T07:14:27.310Z,84.90
2019-06-20T07:17:00.661Z,84.70
2019-06-20T07:19:32.914Z,84.60
2019-06-20T07:22:05.096Z,84.40
2019-06-20T07:24:37.748Z,84.70
2019-06-20T07:27:09.811Z,85.00
2019-06-20T07:29:41.834Z,85.50
2019-06-20T07:32:13.908Z,85.50
2019-06-20T07:34:45.475Z,85.20
2019-06-20T07:37:17.412Z,84.90
2019-06-20T07:39:49.493Z,84.40
2019-06-20T07:42:21.588Z,83.30
2019-06-20T07:44:53.575Z,83.00
2019-06-20T07:47:25.777Z,82.20
2019-06-20T07:49:57.894Z,81.50
2019-06-20T07:52:30.104Z,80.80
2019-06-20T07:55:01.591Z,80.00
2019-06-20T07:57:33.803Z,79.20
2019-06-20T08:00:06.584Z,78.40
2019-06-20T08:02:38.711Z,77.10
2019-06-20T08:05:11.719Z,76.10
2019-06-20T08:07:43.465Z,75.40
2019-06-20T08:10:16.273Z,74.60
2019-06-20T08:12:48.234Z,73.80
2019-06-20T08:15:21.167Z,72.60
2019-06-20T08:17:52.982Z,71.50
2019-06-20T08:20:25.201Z,70.00
2019-06-20T08:22:57.348Z,68.10
2019-06-20T08:25:29.606Z,66.40
2019-06-20T08:28:02.334Z,65.50
2019-06-20T08:30:36.011Z,65.00
2019-06-20T08:33:11.866Z,65.00
2019-06-20T08:35:43.149Z,64.30
2019-06-20T08:38:15.367Z,64.00
2019-06-20T08:40:47.223Z,62.80
2019-06-20T08:43:18.879Z,62.50
2019-06-20T08:45:50.792Z,62.40
2019-06-20T08:48:22.513Z,62.20
2019-06-20T08:50:56.790Z,61.70
2019-06-20T08:53:28.387Z,61.40
2019-06-20T08:56:00.939Z,61.50
2019-06-20T08:58:32.995Z,61.60
2019-06-20T09:03:37.204Z,61.60
2019-06-20T09:06:09.550Z,61.70
2019-06-20T09:08:42.038Z,61.70
2019-06-20T09:11:14.301Z,61.60
2019-06-20T09:13:46.284Z,60.90
2019-06-20T09:16:24.499Z,60.70
2019-06-20T09:18:53.301Z,60.40
2019-06-20T09:21:25.411Z,60.20
2019-06-20T09:23:57.767Z,60.30
2019-06-20T09:26:29.871Z,61.00
2019-06-20T09:29:01.994Z,62.10
2019-06-20T09:31:37.059Z,63.30
2019-06-20T09:34:09.183Z,64.90
2019-06-20T09:36:41.214Z,64.70
2019-06-20T09:39:13.129Z,65.00
2019-06-20T09:41:45.377Z,65.80
2019-06-20T09:44:17.253Z,66.50
2019-06-20T09:46:49.808Z,67.50
2019-06-20T09:49:22.909Z,68.60
2019-06-20T09:51:56.535Z,69.30
2019-06-20T09:54:28.730Z,69.90
2019-06-20T09:57:00.528Z,70.90
2019-06-20T09:59:32.545Z,71.70
2019-06-20T10:02:04.885Z,72.50
2019-06-20T10:04:37.454Z,73.00
2019-06-20T10:07:10.050Z,74.00
2019-06-20T10:09:42.411Z,74.90
2019-06-20T10:12:14.877Z,75.20
2019-06-20T10:14:49.507Z,75.60
2019-06-20T10:17:21.480Z,75.80
2019-06-20T10:19:54.097Z,75.40
2019-06-20T10:22:25.835Z,74.80
2019-06-20T10:25:05.626Z,74.70
2019-06-20T10:27:37.649Z,74.40
2019-06-20T10:30:14.606Z,74.30
2019-06-20T10:32:45.319Z,74.50
2019-06-20T10:35:18.443Z,75.00
2019-06-20T10:37:50.823Z,74.90
2019-06-20T10:40:24.784Z,74.80
2019-06-20T10:42:57.160Z,74.50
2019-06-20T10:45:29.698Z,73.00
2019-06-20T10:48:04.061Z,71.20
2019-06-20T10:50:37.055Z,70.10
2019-06-20T10:53:09.121Z,69.40
2019-06-20T10:55:42.071Z,69.00
2019-06-20T10:58:14.476Z,68.90
2019-06-20T11:00:48.380Z,67.60
2019-06-20T11:03:20.539Z,66.50
2019-06-20T11:05:53.687Z,65.60
2019-06-20T11:08:25.852Z,65.00
2019-06-20T11:10:58.266Z,65.10
2019-06-20T11:13:30.269Z,64.00
2019-06-20T11:16:02.426Z,64.50
2019-06-20T11:18:34.819Z,63.70
2019-06-20T11:21:07.044Z,62.30
2019-06-20T11:23:40.876Z,61.10
2019-06-20T11:26:13.103Z,60.60
2019-06-20T11:28:45.117Z,60.20
2019-06-20T11:31:17.079Z,59.90
2019-06-20T11:33:48.935Z,59.50
2019-06-20T11:36:20.959Z,59.00
2019-06-20T11:38:52.903Z,58.60
2019-06-20T11:41:25.045Z,58.20
2019-06-20T11:43:56.792Z,57.30
2019-06-20T11:46:28.899Z,56.90
2019-06-20T11:49:01.298Z,56.80
2019-06-20T11:51:34.367Z,56.50
2019-06-20T11:54:07.250Z,56.40
2019-06-20T11:56:39.436Z,56.10
2019-06-20T11:59:11.488Z,56.30
2019-06-20T12:01:44.904Z,56.50
2019-06-20T12:04:17.274Z,57.00
2019-06-20T12:06:49.308Z,57.60
2019-06-20T12:09:21.413Z,58.00
2019-06-20T12:11:53.567Z,58.50
2019-06-20T12:14:25.378Z,59.00
2019-06-20T12:16:57.228Z,59.20
2019-06-20T12:19:29.557Z,59.20
2019-06-20T12:22:01.894Z,59.40
2019-06-20T12:24:34.311Z,59.60
2019-06-20T12:27:06.559Z,59.80
2019-06-20T12:29:39.412Z,59.90
2019-06-20T12:32:12.247Z,59.90
2019-06-20T12:34:44.551Z,59.90
2019-06-20T12:37:16.741Z,60.00
2019-06-20T12:39:49.859Z,59.60
2019-06-20T12:42:22.007Z,59.50
2019-06-20T12:44:54.609Z,59.50
2019-06-20T12:47:26.772Z,58.90
2019-06-20T12:49:58.954Z,58.70
2019-06-20T12:52:31.031Z,58.50
2019-06-20T12:55:03.310Z,58.40
2019-06-20T12:57:35.208Z,58.40
2019-06-20T13:00:08.158Z,58.20
2019-06-20T13:02:41.802Z,57.70
2019-06-20T13:05:15.322Z,57.50
2019-06-20T13:07:47.401Z,56.90
2019-06-20T13:10:19.622Z,56.60
2019-06-20T13:12:51.680Z,56.20
2019-06-20T13:15:23.663Z,56.10
2019-06-20T13:17:55.761Z,56.20
2019-06-20T13:20:28.135Z,56.10
2019-06-20T13:23:00.482Z,56.60
2019-06-20T13:25:32.577Z,56.80
2019-06-20T13:28:04.435Z,56.90
2019-06-20T13:30:36.497Z,57.00
2019-06-20T13:33:08.602Z,57.30
2019-06-20T13:35:42.337Z,56.90
2019-06-20T13:38:14.671Z,56.40
2019-06-20T13:40:47.236Z,55.80
2019-06-20T13:43:19.511Z,55.20
2019-06-20T13:45:52.170Z,54.60
2019-06-20T13:48:24.147Z,53.80
2019-06-20T13:50:56.496Z,52.50
2019-06-20T13:53:28.732Z,51.60
2019-06-20T13:56:00.851Z,51.20
2019-06-20T13:58:32.925Z,51.00
2019-06-20T14:01:05.239Z,50.50
2019-06-20T14:03:37.420Z,49.70
2019-06-20T14:06:09.537Z,49.00
2019-06-20T14:08:42.905Z,48.60
2019-06-20T14:11:15.471Z,47.70
2019-06-20T14:13:51.109Z,47.60
2019-06-20T14:16:21.523Z,47.50
2019-06-20T14:18:53.406Z,46.00
2019-06-20T14:21:25.913Z,46.20
2019-06-20T14:23:57.857Z,45.80
2019-06-20T14:26:29.943Z,45.50
2019-06-20T14:29:01.937Z,45.40
2019-06-20T14:31:34.324Z,45.60
2019-06-20T14:34:06.207Z,45.60
2019-06-20T14:36:38.393Z,46.10
2019-06-20T14:39:10.369Z,45.60
2019-06-20T14:41:42.075Z,45.60
2019-06-20T14:44:16.600Z,45.30
2019-06-20T14:46:50.509Z,44.80
2019-06-20T14:49:23.251Z,45.10
2019-06-20T14:51:56.191Z,45.90
2019-06-20T14:54:28.197Z,48.50
2019-06-20T14:57:00.227Z,48.90
2019-06-20T14:59:35.426Z,49.10
2019-06-20T15:02:07.547Z,49.90
2019-06-20T15:04:39.593Z,50.20
2019-06-20T15:07:12.234Z,49.80
2019-06-20T15:09:45.896Z,49.70
2019-06-20T15:12:17.947Z,49.80
2019-06-20T15:14:51.428Z,49.90
2019-06-20T15:17:23.891Z,50.30
2019-06-20T15:19:56.251Z,50.00
2019-06-20T15:22:28.321Z,49.30
2019-06-20T15:25:01.066Z,48.80
2019-06-20T15:27:33.063Z,48.20
2019-06-20T15:30:05.463Z,48.10
2019-06-20T15:32:37.209Z,46.70
2019-06-20T15:35:11.307Z,46.20
2019-06-20T15:37:43.414Z,46.50
2019-06-20T15:40:16.121Z,46.00
2019-06-20T15:42:49.615Z,45.60
2019-06-20T15:45:23.981Z,45.60
2019-06-20T15:47:57.896Z,46.80
2019-06-20T15:50:30.548Z,46.30
2019-06-20T15:53:02.675Z,46.30
2019-06-20T15:55:35.034Z,46.40
2019-06-20T15:58:07.403Z,46.30
2019-06-20T16:00:40.004Z,46.10
2019-06-20T16:03:14.552Z,46.40
2019-06-20T16:05:45.727Z,46.10
2019-06-20T16:08:17.827Z,45.80
2019-06-20T16:10:51.397Z,45.60
2019-06-20T16:13:23.650Z,45.50
2019-06-20T16:15:55.867Z,45.90
2019-06-20T16:18:27.940Z,45.90
2019-06-20T16:21:00.067Z,45.80
2019-06-20T16:23:32.177Z,45.90
2019-06-20T16:26:04.295Z,45.80
2019-06-20T16:28:36.057Z,45.50
2019-06-20T16:31:10.277Z,44.80
2019-06-20T16:33:41.736Z,44.40
2019-06-20T16:36:13.900Z,44.50
2019-06-20T16:38:46.319Z,44.10
2019-06-20T16:41:18.693Z,43.30
2019-06-20T16:43:50.740Z,42.90
2019-06-20T16:46:22.773Z,42.70
2019-06-20T16:48:54.979Z,42.40
2019-06-20T16:51:27.024Z,42.10
2019-06-20T16:53:58.977Z,42.30
2019-06-20T16:56:31.512Z,42.70
2019-06-20T16:59:28.966Z,43.00
2019-06-20T17:02:01.005Z,43.70
2019-06-20T17:04:33.706Z,44.00
2019-06-20T17:07:05.964Z,44.20
2019-06-20T17:09:37.972Z,44.50
2019-06-20T17:12:11.246Z,44.60
2019-06-20T17:14:43.475Z,45.10
2019-06-20T17:17:16.047Z,45.80
2019-06-20T17:19:47.875Z,46.70
2019-06-20T17:22:20.477Z,47.90
2019-06-20T17:24:52.644Z,48.90
2019-06-20T17:27:24.825Z,49.80
2019-06-20T17:29:57.440Z,50.80
2019-06-20T17:32:29.622Z,51.50
2019-06-20T17:35:01.612Z,52.20
2019-06-20T17:37:33.550Z,52.70
2019-06-20T17:40:07.000Z,53.30
2019-06-20T17:42:39.233Z,53.80
2019-06-20T17:45:12.089Z,54.30
2019-06-20T17:47:44.128Z,54.80
2019-06-20T17:50:16.060Z,55.20
2019-06-20T17:53:13.616Z,55.90
2019-06-20T17:55:45.379Z,56.40
2019-06-20T17:58:45.547Z,56.80
2019-06-20T18:01:17.668Z,57.10
2019-06-20T18:03:49.820Z,57.40
2019-06-20T18:06:21.962Z,57.70
2019-06-20T18:08:53.806Z,58.20
2019-06-20T18:11:26.047Z,58.50
2019-06-20T18:13:58.289Z,58.90
2019-06-20T18:16:30.361Z,59.30
2019-06-20T18:19:26.964Z,59.60
2019-06-20T18:21:59.419Z,59.90
2019-06-20T18:24:31.438Z,60.20
2019-06-20T18:27:03.551Z,60.60
2019-06-20T18:29:35.646Z,60.90
2019-06-20T18:32:33.414Z,61.20
2019-06-20T18:35:06.193Z,61.60
2019-06-20T18:37:38.655Z,62.00
2019-06-20T18:40:11.161Z,62.40
2019-06-20T18:42:43.334Z,62.70
2019-06-20T18:45:15.653Z,63.00
2019-06-20T18:47:47.925Z,63.00
2019-06-20T18:50:20.034Z,62.60
2019-06-20T18:52:52.922Z,62.50
2019-06-20T18:55:24.752Z,62.50
2019-06-20T18:58:26.541Z,62.40
2019-06-20T19:00:58.945Z,62.40
2019-06-20T19:03:31.079Z,62.20
2019-06-20T19:06:03.304Z,62.10
2019-06-20T19:08:35.695Z,62.30
2019-06-20T19:11:07.779Z,62.40
2019-06-20T19:13:39.761Z,62.60
2019-06-20T19:16:11.897Z,63.10
2019-06-20T19:18:44.548Z,63.30
2019-06-20T19:21:16.764Z,63.60
2019-06-20T19:23:48.739Z,64.20
2019-06-20T19:26:20.686Z,64.50
2019-06-20T19:28:53.122Z,65.00
2019-06-20T19:31:26.268Z,65.50
2019-06-20T19:33:58.105Z,66.30
2019-06-20T19:36:30.188Z,66.60
2019-06-20T19:39:02.028Z,67.20
2019-06-20T19:41:34.225Z,68.30
2019-06-20T19:44:06.308Z,67.70
2019-06-20T19:46:38.573Z,68.10
2019-06-20T19:49:10.882Z,68.50
2019-06-20T19:51:43.081Z,69.00
2019-06-20T19:54:14.888Z,69.40
2019-06-20T19:56:46.500Z,70.10
2019-06-20T19:59:18.699Z,70.30
2019-06-20T20:01:50.867Z,71.00
2019-06-20T20:04:22.963Z,71.30
2019-06-20T20:06:54.907Z,71.60
2019-06-20T20:09:26.604Z,71.90
2019-06-20T20:11:58.627Z,71.90
2019-06-20T20:14:30.799Z,72.00
2019-06-20T20:17:02.458Z,71.90
2019-06-20T20:19:34.523Z,71.30
2019-06-20T20:22:06.771Z,70.90
2019-06-20T20:24:38.819Z,70.90
2019-06-20T20:27:10.528Z,71.00
2019-06-20T20:29:42.767Z,71.10
2019-06-20T20:32:15.366Z,71.40
2019-06-20T20:34:48.333Z,71.30
2019-06-20T20:37:20.196Z,68.50
2019-06-20T20:39:52.231Z,66.00
2019-06-20T20:42:24.206Z,65.10
2019-06-20T20:44:55.573Z,64.60
2019-06-20T20:47:28.496Z,63.80
2019-06-20T20:50:02.967Z,63.60
2019-06-20T20:52:34.523Z,63.30
2019-06-20T20:55:07.013Z,63.20
2019-06-20T20:57:38.997Z,63.10
2019-06-20T21:00:11.948Z,63.00
2019-06-20T21:02:43.727Z,63.00
2019-06-20T21:05:15.515Z,63.30
2019-06-20T21:07:47.004Z,63.80
2019-06-20T21:10:19.140Z,64.40
2019-06-20T21:12:51.271Z,65.00
2019-06-20T21:15:23.456Z,66.00
2019-06-20T21:17:55.879Z,66.30
2019-06-20T21:20:27.846Z,67.20
2019-06-20T21:22:59.855Z,67.90
2019-06-20T21:25:32.443Z,69.60
2019-06-20T21:28:04.997Z,70.20
2019-06-20T21:30:36.912Z,70.60
2019-06-20T21:33:09.088Z,71.60
2019-06-20T21:35:41.279Z,71.60
2019-06-20T21:38:13.375Z,71.90
2019-06-20T21:40:45.381Z,72.00
2019-06-20T21:43:17.195Z,71.90
2019-06-20T21:45:49.254Z,71.40
2019-06-20T21:48:21.194Z,71.70
2019-06-20T21:50:53.049Z,71.70
2019-06-20T21:53:24.747Z,71.70
2019-06-20T21:55:56.848Z,72.00
2019-06-20T21:58:28.843Z,73.10
2019-06-20T22:01:02.415Z,74.80
2019-06-20T22:03:34.519Z,76.80
2019-06-20T22:06:06.688Z,77.70
2019-06-20T22:08:38.606Z,79.20
2019-06-20T22:11:10.598Z,80.10
2019-06-20T22:13:45.234Z,80.80
2019-06-20T22:16:17.100Z,81.80
2019-06-20T22:18:49.221Z,83.60
2019-06-20T22:21:21.167Z,85.10
2019-06-20T22:23:54.447Z,86.70
2019-06-20T22:26:26.002Z,88.30
2019-06-20T22:28:59.681Z,89.50
2019-06-20T22:31:31.818Z,90.50
2019-06-20T22:34:03.825Z,91.00
2019-06-20T22:36:40.055Z,91.40
2019-06-20T22:39:10.263Z,92.10
2019-06-20T22:41:42.468Z,92.40
2019-06-20T22:44:14.357Z,92.70
2019-06-20T22:46:46.299Z,93.00
2019-06-20T22:49:18.229Z,93.10
2019-06-20T22:51:50.119Z,93.40
2019-06-20T22:54:22.105Z,93.70
2019-06-20T22:56:53.998Z,94.10
2019-06-20T22:59:25.815Z,94.80
2019-06-20T23:01:57.774Z,95.20
2019-06-20T23:04:29.772Z,95.70
2019-06-20T23:07:01.870Z,95.90
2019-06-20T23:09:33.646Z,96.00
2019-06-20T23:12:05.530Z,96.10
2019-06-20T23:14:37.408Z,96.10
2019-06-20T23:17:09.241Z,96.40
2019-06-20T23:19:41.153Z,96.60
2019-06-20T23:22:13.053Z,96.70
2019-06-20T23:24:45.160Z,96.80
2019-06-20T23:27:17.194Z,96.80
2019-06-20T23:29:48.891Z,96.70
2019-06-20T23:32:21.231Z,96.80
2019-06-20T23:34:53.655Z,96.90
2019-06-20T23:37:25.539Z,97.10
2019-06-20T23:39:57.309Z,96.90
2019-06-20T23:42:29.324Z,96.90
2019-06-20T23:45:01.237Z,96.60
2019-06-20T23:47:33.220Z,96.40
2019-06-20T23:50:05.475Z,96.40
2019-06-20T23:52:38.902Z,96.30
2019-06-20T23:55:11.025Z,96.20
2019-06-20T23:57:42.817Z,96.20
